• Join FlightAware (Why Join?)
  • Login
  • US Flag 
04:48AM EDT


 

Airport Tracker/Info


-or-


 

Live Flight TrackerFlight Track Log ✈ SKW6492 ✈ 27-Aug-2013 ✈ KDEN - KCOD

Flight Track Log - Related Links

Times and Time Zones

All times are in EDT time to prevent confusion due to time zone crossing. See the SKW6492 flight status page for this flight to view local times or setup timezone preferences in your user account.

Time Position Orientation Groundspeed Altitude Reporting Facility
EDT Latitude Longitude Course Direction KTS MPH feet Rate Location/Type
09:46PM 39.8500 -104.7500 348° North 201 231 6,600  Level Denver TRACON
09:47PM 39.8667 -104.8167 288° West 244 281 8,100 1,680 Climbing Denver TRACON
09:48PM 40.1833 -104.7766 347° North  Level FlightAware Approximate
09:48PM 39.9167 -104.9000 308° West 292 336 9,800  Level Denver TRACON
09:49PM 40.2952 -104.8102 347° North  Level FlightAware Approximate
09:49PM 40.0000 -104.8833 North 339 390 10,100  Level Denver TRACON
09:50PM 40.4067 -104.8466 346° North  Level FlightAware Approximate
09:50PM 40.1000 -104.8167 27° Northeast 335 386 11,200  Level Denver TRACON
09:51PM 40.5180 -104.8837 348° North  Level FlightAware Approximate
09:51PM 40.1667 -104.8167 360° North 343 395 12,800  Level Denver TRACON
09:52PM 40.2833 -104.8333 354° North 367 422 14,900 1,800 Climbing Denver TRACON
09:53PM 40.3944 -104.8125 North 348 400 17,000 1,560 Climbing Denver Center
09:54PM 40.4939 -104.8236 355° North 362 417 18,400 1,200 Climbing Denver Center
09:55PM 40.5919 -104.8350 355° North 354 407 19,800 1,200 Climbing Denver Center
09:56PM 40.7211 -104.8450 357° North 381 438 21,100 960 Climbing Denver Center
09:57PM 40.8133 -104.8614 352° North 371 427 21,800 780 Climbing Denver Center
09:58PM 40.9394 -104.9250 339° North 402 463 22,700 780 Climbing Denver Center
09:59PM 41.0489 -104.9783 340° North 410 472 23,500 780 Climbing Denver Center
10:00PM 41.1528 -105.0289 340° North 415 478 24,300 780 Climbing Denver Center
10:01PM 41.2586 -105.0803 340° North 420 483 25,100 780 Climbing Denver Center
10:02PM 41.3825 -105.1436 339° North 427 491 26,000 420 Climbing Denver Center
10:03PM 41.4892 -105.1967 340° North 427 491 26,000 120 Level Denver Center
10:04PM 41.6106 -105.2850 331° Northwest 444 511 26,300 420 Climbing Denver Center
10:05PM 41.7028 -105.3867 321° Northwest 447 514 26,900 660 Climbing Denver Center
10:07PM 41.7928 -105.4822 322° Northwest 434 499 27,800 960 Climbing Denver Center
10:08PM 41.9072 -105.6131 320° Northwest 423 487 29,100 1,080 Climbing Denver Center
10:09PM 41.9911 -105.7111 319° Northwest 417 480 30,100 780 Climbing Denver Center
10:10PM 42.0583 -105.7894 319° Northwest 407 468 30,700 540 Climbing Denver Center
10:11PM 42.1661 -105.9186 318° Northwest 406 467 31,300 540 Climbing Denver Center
10:12PM 42.2639 -106.0317 319° Northwest 414 476 31,900 300 Climbing Denver Center
10:13PM 42.3492 -106.1319 319° Northwest 421 484 32,000  Climbing Denver Center
10:14PM 42.4358 -106.2353 319° Northwest 430 495 32,000  Level Denver Center
10:15PM 42.5386 -106.3586 319° Northwest 440 506 32,000  Level Denver Center
10:16PM 42.6289 -106.4653 319° Northwest 447 514 32,000  Level Denver Center
10:17PM 42.7194 -106.5733 319° Northwest 450 518 32,000  Level Denver Center
10:18PM 42.8247 -106.7014 318° Northwest 454 522 32,000  Level Denver Center
10:19PM 42.9164 -106.8103 319° Northwest 455 524 32,000  Level Denver Center
10:19PM 42.9778 -106.8828 319° Northwest 457 526 32,000  Level Salt Lake Center
10:20PM 43.0869 -106.9983 322° Northwest 458 527 32,000  Level Salt Lake Center
10:21PM 43.1875 -107.1081 322° Northwest 463 533 32,000  Level Salt Lake Center
10:22PM 43.2886 -107.2181 322° Northwest 464 534 32,000  Level Salt Lake Center
10:24PM 43.3889 -107.3289 321° Northwest 462 532 32,000  Level Salt Lake Center
10:25PM 43.4875 -107.4425 320° Northwest 462 532 32,000  Level Salt Lake Center
10:26PM 43.5892 -107.5519 322° Northwest 464 534 32,000 -480 Level Salt Lake Center
10:27PM 43.6892 -107.6619 322° Northwest 461 531 31,100 -1,680 Descending Salt Lake Center
10:28PM 43.7889 -107.7733 321° Northwest 461 531 28,600 -2,400 Descending Salt Lake Center
10:29PM 43.8806 -107.8764 321° Northwest 438 504 26,300 -2,340 Descending Salt Lake Center
10:30PM 43.9872 -107.9961 321° Northwest 416 479 23,900 -2,160 Descending Salt Lake Center
10:31PM 44.0756 -108.0956 321° Northwest 410 472 21,900 -2,040 Descending Salt Lake Center
10:32PM 44.1636 -108.1972 320° Northwest 410 472 19,800 -2,100 Descending Salt Lake Center
10:33PM 44.2514 -108.2989 320° Northwest 410 472 17,600 -2,160 Descending Salt Lake Center
10:34PM 44.3333 -108.3931 321° Northwest 396 456 15,500 -2,160 Descending Salt Lake Center
10:35PM 44.4064 -108.4769 321° Northwest 370 426 13,200 -2,100 Descending Salt Lake Center
10:36PM 44.4769 -108.5572 321° Northwest 348 400 11,300 -1,680 Descending Salt Lake Center
10:37PM 44.5425 -108.6331 321° Northwest 329 379 9,800 -1,260 Descending Salt Lake Center
10:38PM 44.5969 -108.6944 321° Northwest 288 331 8,800 -900 Descending Salt Lake Center
10:39PM 44.6431 -108.7411 324° Northwest 237 273 8,000 -660 Descending Salt Lake Center
10:40PM 44.6350 -108.8200 262° West 214 246 7,500 -300 Descending Salt Lake Center
10:41PM 44.6033 -108.8792 233° Southwest 199 229 7,500 -420 Level Salt Lake Center
10:42PM 44.5717 -108.9361 232° Southwest 193 222 6,700 -720 Descending Salt Lake Center
10:43PM 44.5472 -108.9781 231° Southwest 184 212 6,100 -600 Descending Salt Lake Center